Time;durP1;ratioP1;P1;durP2;ratioP2;P2;SDS_P1;SDS_P2;PMS_P1;PMS_P2;Temp;Humidity;BMP_temperature;BMP_pressure;BME280_temperature;BME280_humidity;BME280_pressure;Samples;Min_cycle;Max_cycle;Signal;HPM_P1;HPM_P2
2020/12/14 00:01:08;;;;;;;2.63;1.40;;;16.80;65.90;;;;;;10496751;28;20025;-57
2020/12/14 00:06:09;;;;;;;2.92;1.58;;;16.80;65.90;;;;;;10489470;28;20044;-57
2020/12/14 00:11:09;;;;;;;1.90;1.13;;;16.80;65.90;;;;;;10496682;28;20488;-57
2020/12/14 00:16:10;;;;;;;2.60;1.13;;;16.80;65.90;;;;;;10495980;28;20036;-57
2020/12/14 00:21:11;;;;;;;2.58;1.50;;;16.80;65.80;;;;;;10495789;28;20124;-57
2020/12/14 00:26:11;;;;;;;2.30;1.30;;;16.70;65.80;;;;;;10496266;28;20090;-57
2020/12/14 00:31:12;;;;;;;1.83;1.15;;;16.70;65.80;;;;;;10495899;28;20049;-57
2020/12/14 00:36:13;;;;;;;3.40;1.42;;;16.70;65.90;;;;;;10495862;28;20466;-57
2020/12/14 00:41:19;;;;;;;2.90;1.48;;;16.70;65.80;;;;;;10495924;28;20024;-57
2020/12/14 00:46:20;;;;;;;4.45;1.63;;;16.70;65.80;;;;;;10495480;28;20117;-57
2020/12/14 00:51:28;;;;;;;2.13;1.20;;;16.70;65.80;;;;;;10495341;28;20163;-57
2020/12/14 00:56:29;;;;;;;2.13;1.35;;;16.70;65.50;;;;;;10490260;28;20040;-57
2020/12/14 01:01:29;;;;;;;1.80;1.20;;;16.60;65.60;;;;;;10495391;28;20046;-57
2020/12/14 01:06:30;;;;;;;3.00;1.50;;;16.60;65.60;;;;;;10493890;28;20048;-57
2020/12/14 01:11:31;;;;;;;1.73;1.10;;;16.60;65.70;;;;;;10495433;28;20025;-57
2020/12/14 01:16:32;;;;;;;2.05;1.38;;;16.60;65.70;;;;;;10493824;28;20490;-57
2020/12/14 01:21:32;;;;;;;1.55;1.00;;;16.60;65.70;;;;;;10495032;28;20029;-57
2020/12/14 01:26:33;;;;;;;2.00;1.30;;;16.50;65.40;;;;;;10494982;28;20361;-57
2020/12/14 01:31:34;;;;;;;2.85;1.20;;;16.50;65.60;;;;;;10500715;28;20031;-57
2020/12/14 01:36:35;;;;;;;2.10;1.15;;;16.50;65.60;;;;;;10499599;28;20103;-57
2020/12/14 01:41:35;;;;;;;1.85;1.20;;;16.50;65.70;;;;;;10501671;28;20107;-57
2020/12/14 01:46:42;;;;;;;1.58;1.00;;;16.50;65.60;;;;;;10501352;28;20027;-57
2020/12/14 01:51:43;;;;;;;3.45;1.23;;;16.50;65.70;;;;;;10493098;28;20111;-58
2020/12/14 01:56:44;;;;;;;2.40;1.45;;;16.50;65.40;;;;;;10497538;28;20099;-58
2020/12/14 02:01:45;;;;;;;1.85;1.08;;;16.50;65.50;;;;;;10501352;28;20496;-57
2020/12/14 02:06:46;;;;;;;1.85;1.08;;;16.50;65.60;;;;;;10499801;28;20037;-57
2020/12/14 02:11:46;;;;;;;2.22;1.50;;;16.50;65.70;;;;;;10499282;28;20039;-57
2020/12/14 02:16:47;;;;;;;2.80;1.20;;;16.40;65.60;;;;;;10500316;28;20028;-58
2020/12/14 02:21:51;;;;;;;2.08;1.08;;;16.40;65.50;;;;;;10500357;28;20528;-57
2020/12/14 02:26:51;;;;;;;3.38;1.45;;;16.40;65.50;;;;;;10499861;28;20461;-58
2020/12/14 02:31:52;;;;;;;2.30;1.17;;;16.40;65.50;;;;;;10500066;28;20119;-57
2020/12/14 02:36:53;;;;;;;1.98;0.93;;;16.40;65.50;;;;;;10499764;28;20536;-57
2020/12/14 02:41:53;;;;;;;1.27;0.75;;;16.30;65.50;;;;;;10499314;28;20477;-57
2020/12/14 02:46:54;;;;;;;1.40;1.00;;;16.40;65.50;;;;;;10498789;28;20116;-57
2020/12/14 02:51:55;;;;;;;1.95;1.40;;;16.30;65.60;;;;;;10499376;28;20130;-57
2020/12/14 02:56:55;;;;;;;1.95;1.00;;;16.30;65.60;;;;;;10498835;28;20039;-57
2020/12/14 03:01:56;;;;;;;2.05;1.20;;;16.30;65.60;;;;;;10497339;28;20060;-58
2020/12/14 03:06:57;;;;;;;1.33;0.90;;;16.30;65.50;;;;;;10497086;28;20048;-57
2020/12/14 03:12:00;;;;;;;1.50;1.02;;;16.30;65.60;;;;;;10498419;28;20496;-57
2020/12/14 03:17:01;;;;;;;1.58;1.05;;;16.30;65.40;;;;;;10495221;28;20024;-57
2020/12/14 03:22:01;;;;;;;1.52;0.80;;;16.30;65.70;;;;;;10488385;28;20357;-57
2020/12/14 03:27:02;;;;;;;1.77;1.20;;;16.30;65.70;;;;;;10497334;28;20029;-57
2020/12/14 03:32:03;;;;;;;1.52;1.00;;;16.20;65.30;;;;;;10497348;28;20108;-57
2020/12/14 03:37:03;;;;;;;1.40;1.00;;;16.30;65.60;;;;;;10497290;28;20044;-57
2020/12/14 03:42:04;;;;;;;1.88;0.70;;;16.20;65.50;;;;;;10496092;28;20120;-57
2020/12/14 03:47:05;;;;;;;1.85;1.10;;;16.20;65.50;;;;;;10495451;28;20040;-57
2020/12/14 03:52:05;;;;;;;2.38;1.17;;;16.20;65.50;;;;;;10496629;28;20548;-57
2020/12/14 03:57:06;;;;;;;2.03;1.20;;;16.20;65.30;;;;;;10496718;28;20024;-57
2020/12/14 04:02:07;;;;;;;1.83;1.15;;;16.20;65.60;;;;;;10496275;28;20119;-57
2020/12/14 04:07:07;;;;;;;1.65;1.02;;;16.20;65.50;;;;;;10496247;28;20119;-57
2020/12/14 04:12:08;;;;;;;2.03;0.90;;;16.20;65.50;;;;;;10496569;28;20039;-57
2020/12/14 04:17:09;;;;;;;1.30;1.00;;;16.10;65.60;;;;;;10496593;28;20028;-57
2020/12/14 04:22:09;;;;;;;1.58;0.85;;;16.10;65.70;;;;;;10496403;28;20031;-57
2020/12/14 04:27:10;;;;;;;1.45;0.95;;;16.10;65.60;;;;;;10495968;28;20033;-57
2020/12/14 04:32:11;;;;;;;3.67;1.65;;;16.10;65.80;;;;;;10496112;28;20052;-58
2020/12/14 04:37:12;;;;;;;1.50;0.95;;;16.10;65.70;;;;;;10494378;28;20029;-57
2020/12/14 04:42:13;;;;;;;3.60;1.17;;;16.10;65.70;;;;;;10495344;28;20046;-57
2020/12/14 04:47:13;;;;;;;1.80;1.58;;;16.10;65.70;;;;;;10494209;28;20037;-57
2020/12/14 04:52:17;;;;;;;1.80;0.80;;;16.10;65.60;;;;;;10493941;28;20496;-57
2020/12/14 04:57:22;;;;;;;1.75;0.98;;;16.10;65.60;;;;;;10495559;28;20024;-57
2020/12/14 05:02:22;;;;;;;1.75;1.08;;;16.00;65.60;;;;;;10494080;28;20055;-57
2020/12/14 05:07:44;;;;;;;1.30;0.73;;;16.00;65.60;;;;;;10502684;28;20041;-56
2020/12/14 05:12:45;;;;;;;1.08;0.70;;;16.00;65.60;;;;;;10503224;28;20024;-57
2020/12/14 05:17:48;;;;;;;1.50;1.02;;;16.00;65.50;;;;;;10502973;28;20025;-57
2020/12/14 05:23:01;;;;;;;1.45;0.90;;;16.00;65.70;;;;;;10502926;28;20035;-57
2020/12/14 05:28:13;;;;;;;1.08;0.80;;;16.00;65.70;;;;;;10502495;28;20113;-57
2020/12/14 05:33:20;;;;;;;1.50;0.88;;;16.00;65.60;;;;;;10501693;28;20511;-57
2020/12/14 05:38:31;;;;;;;1.55;0.73;;;16.00;65.60;;;;;;10502238;28;20044;-57
2020/12/14 05:43:34;;;;;;;0.90;0.80;;;16.00;65.70;;;;;;10502085;28;20461;-57
2020/12/14 05:48:35;;;;;;;1.48;0.90;;;16.00;65.80;;;;;;10501748;28;20044;-57
2020/12/14 05:53:40;;;;;;;0.80;0.60;;;15.90;65.70;;;;;;10501819;28;20480;-57
2020/12/14 05:58:40;;;;;;;1.17;0.68;;;15.90;65.70;;;;;;10501437;28;20039;-57
2020/12/14 06:03:41;;;;;;;2.08;0.88;;;15.90;65.70;;;;;;10500241;28;20032;-58
2020/12/14 06:09:01;;;;;;;1.50;0.73;;;15.90;65.70;;;;;;10498796;28;20033;-57
2020/12/14 06:14:05;;;;;;;1.20;0.80;;;15.90;65.70;;;;;;10492293;28;20056;-57
2020/12/14 06:19:06;;;;;;;1.15;0.63;;;16.00;65.30;;;;;;10500146;28;20056;-57
2020/12/14 06:24:24;;;;;;;4.00;0.75;;;16.20;65.20;;;;;;10469607;28;20386;-57
2020/12/14 06:29:40;;;;;;;3.78;0.90;;;16.60;64.10;;;;;;10470545;28;20044;-56
2020/12/14 06:34:41;;;;;;;2.28;0.70;;;17.10;63.20;;;;;;10478185;28;20016;-55
2020/12/14 06:39:43;;;;;;;2.85;0.77;;;17.40;62.60;;;;;;10458273;28;20025;-55
2020/12/14 06:45:05;;;;;;;3.28;0.75;;;17.60;62.90;;;;;;10469062;28;20043;-59
2020/12/14 06:50:29;;;;;;;2.67;0.82;;;17.80;62.70;;;;;;10499144;28;20032;-56
2020/12/14 06:55:45;;;;;;;2.10;0.85;;;18.00;62.20;;;;;;10499097;28;20016;-56
2020/12/14 07:00:46;;;;;;;2.13;0.60;;;18.10;62.20;;;;;;10498601;28;20369;-58
2020/12/14 07:06:00;;;;;;;4.63;0.75;;;18.10;62.00;;;;;;10492024;28;20051;-57
2020/12/14 07:11:14;;;;;;;5.93;1.10;;;18.10;62.70;;;;;;10493053;28;20365;-61
2020/12/14 07:16:17;;;;;;;7.07;1.42;;;18.00;63.10;;;;;;10491104;28;20036;-60
2020/12/14 07:21:18;;;;;;;6.07;0.90;;;17.80;63.20;;;;;;10497914;28;20495;-59
2020/12/14 07:26:19;;;;;;;6.05;1.25;;;17.80;63.50;;;;;;10492911;28;20109;-59
2020/12/14 07:31:23;;;;;;;3.83;1.17;;;17.70;63.50;;;;;;10496412;28;20095;-58
2020/12/14 07:36:27;;;;;;;9.25;1.23;;;17.70;63.30;;;;;;10470244;28;20480;-57
2020/12/14 07:41:27;;;;;;;5.03;1.33;;;17.70;63.30;;;;;;10477033;28;20479;-57
2020/12/14 07:46:34;;;;;;;7.10;1.30;;;17.70;63.20;;;;;;10494899;28;20027;-56
2020/12/14 07:51:43;;;;;;;5.43;1.17;;;17.70;63.40;;;;;;10493601;28;20154;-55
2020/12/14 07:56:57;;;;;;;5.68;2.05;;;17.60;63.40;;;;;;10494176;28;20059;-54
2020/12/14 08:01:58;;;;;;;6.45;1.30;;;17.60;63.50;;;;;;10491537;28;20028;-55
2020/12/14 08:07:00;;;;;;;3.05;1.15;;;17.70;63.20;;;;;;10490915;28;20063;-56
2020/12/14 08:12:02;;;;;;;6.88;0.95;;;17.70;63.10;;;;;;10494131;28;20020;-57
2020/12/14 08:17:09;;;;;;;5.03;1.13;;;17.70;63.00;;;;;;10484144;28;20111;-57
2020/12/14 08:22:14;;;;;;;6.18;0.93;;;17.70;63.00;;;;;;10487272;28;20392;-55
2020/12/14 08:27:53;;;;;;;2.50;0.80;;;17.70;62.90;;;;;;10494708;28;20040;-57
2020/12/14 08:33:16;;;;;;;2.72;0.80;;;17.70;63.00;;;;;;10491223;28;20033;-55
2020/12/14 08:38:23;;;;;;;4.40;0.93;;;17.70;63.90;;;;;;10494298;28;20041;-55
2020/12/14 08:43:26;;;;;;;2.65;0.65;;;17.70;63.40;;;;;;10501422;28;20407;-53
2020/12/14 08:48:32;;;;;;;1.92;1.05;;;17.60;63.20;;;;;;10500703;28;20043;-55
2020/12/14 08:53:34;;;;;;;4.70;0.98;;;17.60;63.20;;;;;;10499965;28;20020;-56
2020/12/14 08:58:59;;;;;;;4.80;0.70;;;17.50;63.40;;;;;;10489672;28;20033;-59
2020/12/14 09:04:03;;;;;;;11.50;1.35;;;17.60;63.40;;;;;;10466262;28;20473;-60
2020/12/14 09:09:11;;;;;;;3.38;1.20;;;17.60;63.70;;;;;;10488156;28;20029;-60
2020/12/14 09:14:28;;;;;;;9.88;0.90;;;17.60;63.60;;;;;;10502646;28;20353;-60
2020/12/14 09:19:31;;;;;;;3.85;1.67;;;17.70;63.40;;;;;;10503132;28;20103;-60
2020/12/14 09:24:36;;;;;;;3.22;1.10;;;17.60;63.40;;;;;;10502364;28;20020;-60
2020/12/14 09:29:39;;;;;;;2.38;0.82;;;17.60;63.60;;;;;;10502146;28;20020;-60
2020/12/14 09:34:41;;;;;;;2.03;0.60;;;17.60;63.50;;;;;;10501995;28;20021;-60
2020/12/14 09:39:43;;;;;;;3.10;0.68;;;17.60;63.50;;;;;;10501864;28;20393;-59
2020/12/14 09:44:44;;;;;;;3.42;0.75;;;17.60;63.60;;;;;;10501693;28;20031;-59
2020/12/14 09:49:45;;;;;;;1.77;0.60;;;17.60;63.30;;;;;;10500641;28;20119;-60
2020/12/14 09:54:45;;;;;;;3.38;1.10;;;17.60;63.60;;;;;;10499882;28;20028;-60
2020/12/14 09:59:46;;;;;;;2.33;0.75;;;17.60;63.20;;;;;;10496215;28;20107;-60
2020/12/14 10:04:47;;;;;;;1.35;0.60;;;17.60;63.30;;;;;;10500701;28;20588;-60
2020/12/14 10:09:47;;;;;;;2.05;0.60;;;17.60;63.30;;;;;;10516498;28;20070;-60
2020/12/14 10:14:48;;;;;;;1.92;0.60;;;17.60;63.20;;;;;;10500856;28;20063;-60
2020/12/14 10:19:49;;;;;;;1.25;0.52;;;17.50;63.40;;;;;;10500818;28;20056;-60
2020/12/14 10:24:49;;;;;;;0.98;0.52;;;17.60;63.30;;;;;;10500029;28;20099;-60
2020/12/14 10:29:50;;;;;;;2.42;0.60;;;17.60;63.40;;;;;;10498624;28;20044;-60
2020/12/14 10:34:51;;;;;;;2.08;0.50;;;17.50;63.50;;;;;;10499995;28;20020;-59
2020/12/14 10:39:51;;;;;;;1.13;0.70;;;17.50;63.70;;;;;;10499987;28;20119;-60
2020/12/14 10:44:52;;;;;;;1.10;0.50;;;17.50;63.50;;;;;;10498888;28;20133;-60
2020/12/14 10:49:54;;;;;;;0.60;0.30;;;17.50;63.60;;;;;;10495732;28;20095;-59
2020/12/14 10:54:54;;;;;;;1.55;0.70;;;17.40;63.70;;;;;;10491204;28;20062;-58
2020/12/14 10:59:56;;;;;;;1.67;0.60;;;17.40;63.80;;;;;;10498764;28;20098;-60
2020/12/14 11:04:57;;;;;;;1.73;0.57;;;17.40;63.60;;;;;;10498385;28;20052;-59
2020/12/14 11:09:59;;;;;;;2.38;0.70;;;17.40;63.60;;;;;;10498521;28;20023;-60
2020/12/14 11:15:00;;;;;;;0.85;0.30;;;17.40;63.80;;;;;;10496928;28;20522;-60
2020/12/14 11:20:02;;;;;;;1.20;0.47;;;17.30;64.00;;;;;;10513586;28;20035;-60
2020/12/14 11:25:09;;;;;;;1.45;0.40;;;17.30;63.90;;;;;;10497632;28;20373;-60
2020/12/14 11:30:09;;;;;;;0.75;0.50;;;17.30;63.90;;;;;;10497581;28;20024;-60
2020/12/14 11:35:10;;;;;;;0.70;0.47;;;17.40;63.70;;;;;;10495829;28;20412;-60
2020/12/14 11:40:12;;;;;;;1.85;0.50;;;17.30;64.00;;;;;;10497395;28;20451;-60
2020/12/14 11:45:13;;;;;;;0.50;0.30;;;17.30;63.90;;;;;;10497110;28;20029;-60
2020/12/14 11:50:14;;;;;;;1.75;0.40;;;17.40;63.70;;;;;;10492604;28;20032;-60
2020/12/14 11:55:14;;;;;;;0.63;0.40;;;17.50;63.50;;;;;;10496556;28;20116;-60
2020/12/14 12:00:15;;;;;;;2.35;0.55;;;17.50;63.30;;;;;;10497039;28;20028;-60
2020/12/14 12:05:16;;;;;;;1.05;0.30;;;17.50;63.40;;;;;;10497086;28;20051;-57
2020/12/14 12:10:20;;;;;;;1.20;0.43;;;17.40;63.60;;;;;;10495319;28;20060;-60
2020/12/14 12:15:20;;;;;;;1.67;0.32;;;17.40;63.60;;;;;;10495806;28;20485;-60
2020/12/14 12:20:22;;;;;;;1.08;0.40;;;17.40;63.50;;;;;;10512120;28;20127;-60
2020/12/14 12:25:24;;;;;;;1.00;0.40;;;17.40;63.60;;;;;;10496311;28;20393;-60
2020/12/14 12:30:26;;;;;;;0.73;0.50;;;17.30;63.90;;;;;;10496068;28;20039;-59
2020/12/14 12:35:27;;;;;;;1.10;0.40;;;17.30;63.80;;;;;;10494548;28;20055;-60
2020/12/14 12:40:27;;;;;;;1.05;0.40;;;17.40;63.70;;;;;;10495698;28;20029;-60
2020/12/14 12:45:28;;;;;;;1.40;0.43;;;17.30;63.80;;;;;;10482886;28;20116;-59
2020/12/14 12:50:30;;;;;;;2.60;0.57;;;17.30;64.00;;;;;;10503781;28;20115;-59
2020/12/14 12:55:30;;;;;;;3.60;0.52;;;17.20;64.30;;;;;;10495454;28;20027;-59
2020/12/14 13:00:32;;;;;;;2.03;0.60;;;17.20;64.30;;;;;;10495470;28;20461;-61
2020/12/14 13:05:33;;;;;;;1.48;0.70;;;17.20;64.20;;;;;;10494002;28;20040;-60
2020/12/14 13:10:33;;;;;;;1.60;0.60;;;17.30;63.70;;;;;;10494488;28;20108;-61
2020/12/14 13:15:34;;;;;;;1.52;0.63;;;17.40;63.70;;;;;;10492128;28;20028;-61
2020/12/14 13:20:35;;;;;;;1.38;0.40;;;17.30;63.70;;;;;;10493851;28;20143;-61
2020/12/14 13:25:35;;;;;;;6.05;1.45;;;17.30;63.60;;;;;;10491830;28;20067;-60
2020/12/14 13:30:36;;;;;;;8.85;1.75;;;17.30;64.00;;;;;;10497015;28;20036;-60
2020/12/14 13:35:37;;;;;;;9.10;1.58;;;17.30;65.00;;;;;;10502340;28;20032;-61
2020/12/14 13:40:38;;;;;;;3.80;1.10;;;17.30;65.20;;;;;;10499240;28;20123;-59
2020/12/14 13:45:38;;;;;;;6.38;1.05;;;17.30;65.60;;;;;;10501562;28;20021;-59
2020/12/14 13:50:41;;;;;;;10.60;1.30;;;17.30;65.90;;;;;;10502397;28;20445;-59
2020/12/14 13:55:45;;;;;;;11.88;1.80;;;17.30;65.70;;;;;;10501555;28;20461;-60
2020/12/14 14:00:45;;;;;;;12.50;1.45;;;17.30;65.40;;;;;;10499940;28;20039;-60
2020/12/14 14:05:46;;;;;;;9.10;1.45;;;17.30;65.30;;;;;;10499816;28;20070;-61
2020/12/14 14:10:48;;;;;;;10.13;1.85;;;17.20;65.40;;;;;;10489726;28;20428;-59
2020/12/14 14:15:48;;;;;;;19.35;2.33;;;17.20;65.40;;;;;;10479602;28;20041;-60
2020/12/14 14:20:52;;;;;;;17.85;2.50;;;17.20;66.00;;;;;;10474679;28;20029;-59
2020/12/14 14:25:53;;;;;;;22.23;4.07;;;17.20;66.40;;;;;;10490647;28;20512;-60
2020/12/14 14:30:54;;;;;;;17.67;3.75;;;17.10;66.70;;;;;;10489019;28;20107;-61
2020/12/14 14:35:54;;;;;;;18.20;4.28;;;17.10;67.20;;;;;;10476721;28;20043;-61
2020/12/14 14:40:55;;;;;;;17.88;3.47;;;17.10;67.00;;;;;;10499708;28;20104;-62
2020/12/14 14:45:56;;;;;;;17.88;3.08;;;17.10;66.90;;;;;;10499771;28;20056;-62
2020/12/14 14:50:57;;;;;;;15.68;3.13;;;17.10;66.70;;;;;;10487785;28;20107;-63
2020/12/14 14:55:57;;;;;;;11.70;3.15;;;17.00;66.70;;;;;;10484843;28;20025;-63
2020/12/14 15:00:58;;;;;;;16.25;2.50;;;17.00;66.80;;;;;;10497311;28;20062;-63
2020/12/14 15:05:59;;;;;;;14.70;2.25;;;16.90;66.80;;;;;;10498107;28;20057;-62
2020/12/14 15:10:59;;;;;;;9.60;1.73;;;16.90;66.70;;;;;;10498691;28;20099;-63
2020/12/14 15:16:00;;;;;;;11.15;2.25;;;16.90;66.50;;;;;;10498263;28;20116;-61
2020/12/14 15:21:01;;;;;;;16.38;3.40;;;16.90;66.40;;;;;;10493821;28;20028;-63
2020/12/14 15:26:02;;;;;;;6.00;1.83;;;17.10;65.80;;;;;;10497643;28;20479;-63
2020/12/14 15:31:03;;;;;;;7.88;1.52;;;17.20;66.00;;;;;;10495756;28;20461;-63
2020/12/14 15:36:04;;;;;;;10.15;2.25;;;17.30;65.00;;;;;;10496992;28;20103;-63
2020/12/14 15:41:04;;;;;;;9.80;1.58;;;17.30;64.80;;;;;;10497028;28;20040;-62
2020/12/14 15:46:05;;;;;;;7.55;1.40;;;17.30;64.60;;;;;;10495801;28;20059;-58
2020/12/14 15:51:13;;;;;;;8.30;1.55;;;17.40;64.40;;;;;;10478960;28;20020;-62
2020/12/14 15:56:17;;;;;;;11.02;1.17;;;17.40;64.50;;;;;;10486218;28;20028;-62
2020/12/14 16:01:18;;;;;;;8.35;1.52;;;17.40;64.50;;;;;;10484341;28;20029;-63
2020/12/14 16:06:19;;;;;;;9.70;1.95;;;17.30;64.60;;;;;;10481383;28;20037;-62
2020/12/14 16:11:19;;;;;;;11.43;1.83;;;17.30;64.70;;;;;;10480376;28;20112;-63
2020/12/14 16:16:22;;;;;;;20.98;2.85;;;17.40;64.80;;;;;;10483988;28;20063;-63
2020/12/14 16:21:23;;;;;;;9.15;2.30;;;17.30;65.10;;;;;;10491860;28;20064;-63
2020/12/14 16:26:24;;;;;;;13.02;1.90;;;17.40;65.40;;;;;;10492962;28;20489;-61
2020/12/14 16:31:25;;;;;;;10.18;2.17;;;17.40;65.40;;;;;;10492544;28;20020;-61
2020/12/14 16:36:25;;;;;;;8.55;2.28;;;17.40;65.50;;;;;;10488687;28;20111;-60
2020/12/14 16:41:26;;;;;;;9.65;1.55;;;17.30;65.70;;;;;;10501326;28;20103;-61
2020/12/14 16:46:30;;;;;;;10.23;1.98;;;17.30;66.10;;;;;;10494004;28;20113;-60
2020/12/14 16:51:31;;;;;;;13.52;2.45;;;17.50;66.00;;;;;;10494083;28;20045;-60
2020/12/14 16:56:32;;;;;;;14.35;2.25;;;17.60;65.80;;;;;;10484115;28;20511;-62
2020/12/14 17:01:33;;;;;;;23.08;4.47;;;17.60;65.40;;;;;;10501092;28;20550;-59
2020/12/14 17:06:34;;;;;;;15.55;3.53;;;17.70;65.00;;;;;;10497532;28;20127;-60
2020/12/14 17:11:38;;;;;;;12.50;3.53;;;17.80;64.30;;;;;;10501600;28;20111;-59
2020/12/14 17:16:45;;;;;;;11.18;3.75;;;18.20;63.10;;;;;;10501940;28;20036;-59
2020/12/14 17:21:46;;;;;;;8.23;3.28;;;18.40;63.00;;;;;;10500068;28;20028;-61
2020/12/14 17:26:47;;;;;;;7.80;3.33;;;18.50;65.10;;;;;;10502400;28;20016;-61
2020/12/14 17:31:49;;;;;;;14.88;3.45;;;18.60;65.30;;;;;;10501478;28;20032;-58
2020/12/14 17:36:50;;;;;;;10.20;3.22;;;18.70;65.90;;;;;;10500189;28;20105;-57
2020/12/14 17:41:54;;;;;;;13.48;2.88;;;18.70;65.30;;;;;;10500844;28;20097;-57
2020/12/14 17:46:55;;;;;;;7.95;3.03;;;18.50;65.80;;;;;;10500384;28;20067;-57
2020/12/14 17:51:59;;;;;;;10.63;3.13;;;18.40;66.30;;;;;;10499929;28;20486;-57
2020/12/14 17:57:00;;;;;;;15.63;3.15;;;18.40;66.30;;;;;;10487359;28;20137;-57
2020/12/14 18:02:01;;;;;;;15.57;3.30;;;18.30;66.40;;;;;;10501392;28;20544;-58
2020/12/14 18:07:02;;;;;;;14.23;3.38;;;18.20;66.40;;;;;;10471799;28;20048;-58
2020/12/14 18:12:03;;;;;;;14.77;4.03;;;18.10;66.80;;;;;;10469117;28;20086;-56
2020/12/14 18:17:03;;;;;;;11.02;3.03;;;18.00;67.40;;;;;;10472588;28;20033;-58
2020/12/14 18:22:04;;;;;;;6.30;2.25;;;17.90;67.20;;;;;;10485428;28;20528;-58
2020/12/14 18:27:05;;;;;;;5.68;2.75;;;18.00;67.20;;;;;;10463336;28;20108;-59
2020/12/14 21:23:16;;;;;;;5.00;1.97;;;17.10;69.20;;;;;;10501570;28;20036;-61
2020/12/14 21:28:18;;;;;;;3.03;1.38;;;17.00;69.20;;;;;;10479892;28;20498;-61
2020/12/14 21:33:19;;;;;;;6.18;1.80;;;17.00;69.20;;;;;;10502276;28;20032;-61
2020/12/14 21:38:19;;;;;;;4.63;2.00;;;17.00;69.20;;;;;;10502145;28;20477;-60
2020/12/14 21:43:20;;;;;;;6.63;2.20;;;16.90;69.20;;;;;;10502446;28;20412;-61
2020/12/14 21:48:21;;;;;;;5.28;3.28;;;16.90;69.10;;;;;;10500785;28;20074;-61
2020/12/14 21:53:21;;;;;;;6.30;1.90;;;16.90;69.20;;;;;;10501727;28;20101;-61
2020/12/14 21:58:22;;;;;;;3.63;1.67;;;16.90;69.10;;;;;;10501450;28;20033;-60
2020/12/14 22:03:23;;;;;;;3.35;2.25;;;16.80;69.10;;;;;;10501413;28;20119;-60
2020/12/14 22:08:24;;;;;;;6.00;1.65;;;16.80;69.10;;;;;;10500820;28;20120;-61
2020/12/14 22:13:24;;;;;;;3.53;2.22;;;16.80;69.20;;;;;;10500732;28;20035;-61
2020/12/14 22:18:26;;;;;;;6.20;2.03;;;16.70;69.10;;;;;;10500995;28;20063;-61
2020/12/14 22:23:26;;;;;;;3.78;2.33;;;16.70;69.10;;;;;;10500246;28;20028;-60
2020/12/14 22:28:27;;;;;;;2.90;1.65;;;16.70;69.00;;;;;;10500361;28;20055;-61
2020/12/14 22:33:28;;;;;;;4.28;1.58;;;16.70;69.00;;;;;;10499983;28;20487;-61
2020/12/14 22:38:28;;;;;;;3.13;1.85;;;16.70;69.00;;;;;;10498415;28;20123;-60
2020/12/14 22:43:29;;;;;;;3.17;2.05;;;16.70;69.00;;;;;;10499720;28;20033;-60
2020/12/14 22:48:30;;;;;;;2.75;1.60;;;16.70;69.00;;;;;;10499479;28;20143;-61
2020/12/14 22:53:31;;;;;;;2.67;1.80;;;16.70;68.90;;;;;;10499304;28;20028;-60
2020/12/14 22:58:31;;;;;;;3.05;1.67;;;16.60;68.90;;;;;;10498767;28;20032;-60
2020/12/14 23:03:32;;;;;;;2.20;1.48;;;16.60;68.90;;;;;;10498944;28;20153;-61
2020/12/14 23:08:33;;;;;;;2.65;1.65;;;16.60;68.80;;;;;;10498531;28;20374;-61
2020/12/14 23:13:34;;;;;;;3.03;2.20;;;16.60;68.80;;;;;;10498351;28;20438;-61
2020/12/14 23:18:34;;;;;;;4.22;1.70;;;16.60;68.80;;;;;;10498179;28;20032;-61
2020/12/14 23:23:35;;;;;;;4.20;2.15;;;16.60;68.80;;;;;;10493401;28;20136;-61
2020/12/14 23:28:36;;;;;;;3.33;1.70;;;16.60;68.80;;;;;;10497784;28;20512;-61
2020/12/14 23:33:36;;;;;;;3.85;1.67;;;16.50;68.70;;;;;;10496255;28;20059;-61
2020/12/14 23:38:39;;;;;;;3.22;1.73;;;16.50;68.70;;;;;;10513329;28;20131;-61
2020/12/14 23:43:40;;;;;;;2.28;1.67;;;16.50;68.70;;;;;;10497221;28;20034;-61
2020/12/14 23:48:40;;;;;;;4.07;2.38;;;16.50;68.70;;;;;;10496432;28;20362;-60
2020/12/14 23:53:41;;;;;;;3.17;1.85;;;16.50;68.60;;;;;;10496143;28;20025;-61
2020/12/14 23:58:42;;;;;;;2.90;1.73;;;16.50;68.60;;;;;;10494600;28;20100;-60
